PWSweather.com
Personal Weather Stations
Station Observations
BULSHOEK
ClanwilliamZA

ClanwilliamZA

Lat: -32.003, Lon: 18.782

Elevation: 213

Station Type: Davis Vantage Pro

High Low Average
Temperature 67.2°F19.6°C 37.5°F3.1°C 50.1°F10.1°C
Dew Point 49.1°F9.5°C 34.7°F1.5°C 41.8°F5.4°C
Winds 10.5 mph 16.9 kmh Calm Calm 1.0 mph S1.6 kmh S
Wind Gusts 17.0 mph27.4 kmh -- 2.0 mph3.2 kmh
Humidity 91% 40% 76%
Pressure 30.31 in1026.4 mb 30.14 in1020.7 mb -
Precipitation 0.01 in0.3 mm - -
Hour Temp Dew Point Humidity Winds Wind Gusts Pressure Precip Precip Rate Daily Precip Total
12:00 AM 43.1°F6.2°C 38.3°F3.5°C 83% Calm Calm -- 30.14 in1020.7 mb 0.00 in0.0 mm 0.00 in0.0 mm 0.01 in0.3 mm
12:05 AM 42.9°F6.1°C 38.1°F3.4°C 83% Calm Calm -- 30.14 in1020.7 mb 0.00 in0.0 mm 0.00 in0.0 mm 0.00 in0.0 mm
12:10 AM 42.8°F6.0°C 38.3°F3.5°C 84% Calm Calm -- 30.14 in1020.7 mb 0.00 in0.0 mm 0.00 in0.0 mm 0.00 in0.0 mm
12:15 AM 42.8°F6.0°C 38.3°F3.5°C 84% Calm Calm -- 30.14 in1020.7 mb 0.00 in0.0 mm 0.00 in0.0 mm 0.00 in0.0 mm
12:20 AM 42.7°F5.9°C 38.2°F3.4°C 84% Calm Calm -- 30.14 in1020.7 mb 0.00 in0.0 mm 0.00 in0.0 mm 0.00 in0.0 mm
12:25 AM 42.4°F5.8°C 37.9°F3.3°C 84% Calm Calm -- 30.14 in1020.7 mb 0.00 in0.0 mm 0.00 in0.0 mm 0.00 in0.0 mm
12:30 AM 42.2°F5.7°C 37.7°F3.2°C 84% Calm Calm -- 30.14 in1020.7 mb 0.00 in0.0 mm 0.00 in0.0 mm 0.00 in0.0 mm
12:35 AM 42.0°F5.6°C 37.5°F3.1°C 84% Calm Calm -- 30.14 in1020.7 mb 0.00 in0.0 mm 0.00 in0.0 mm 0.00 in0.0 mm
12:40 AM 42.1°F5.6°C 37.9°F3.3°C 85% Calm Calm -- 30.14 in1020.7 mb 0.00 in0.0 mm 0.00 in0.0 mm 0.00 in0.0 mm
12:45 AM 42.2°F5.7°C 38.0°F3.3°C 85% Calm Calm -- 30.14 in1020.7 mb 0.00 in0.0 mm 0.00 in0.0 mm 0.00 in0.0 mm
12:50 AM 42.2°F5.7°C 38.0°F3.3°C 85% Calm Calm -- 30.14 in1020.7 mb 0.00 in0.0 mm 0.00 in0.0 mm 0.00 in0.0 mm
12:55 AM 42.0°F5.6°C 37.8°F3.2°C 85% Calm Calm -- 30.14 in1020.7 mb 0.00 in0.0 mm 0.00 in0.0 mm 0.00 in0.0 mm
01:00 AM 41.8°F5.4°C 37.6°F3.1°C 85% Calm Calm -- 30.15 in1021.0 mb 0.00 in0.0 mm 0.00 in0.0 mm 0.00 in0.0 mm
01:05 AM 41.7°F5.4°C 37.5°F3.1°C 85% Calm Calm -- 30.15 in1021.0 mb 0.00 in0.0 mm 0.00 in0.0 mm 0.00 in0.0 mm
01:10 AM 41.6°F5.3°C 37.7°F3.2°C 86% Calm Calm -- 30.15 in1021.0 mb 0.00 in0.0 mm 0.00 in0.0 mm 0.00 in0.0 mm
01:15 AM 41.5°F5.3°C 37.3°F2.9°C 85% Calm Calm -- 30.15 in1021.0 mb 0.00 in0.0 mm 0.00 in0.0 mm 0.00 in0.0 mm
01:20 AM 41.3°F5.2°C 37.4°F3.0°C 86% Calm Calm -- 30.15 in1021.0 mb 0.00 in0.0 mm 0.00 in0.0 mm 0.00 in0.0 mm
01:25 AM 41.2°F5.1°C 37.3°F2.9°C 86% Calm Calm -- 30.15 in1021.0 mb 0.00 in0.0 mm 0.00 in0.0 mm 0.00 in0.0 mm
01:30 AM 41.0°F5.0°C 37.1°F2.8°C 86% Calm Calm -- 30.15 in1021.0 mb 0.00 in0.0 mm 0.00 in0.0 mm 0.00 in0.0 mm
01:35 AM 41.0°F5.0°C 37.1°F2.8°C 86% Calm Calm -- 30.15 in1021.0 mb 0.00 in0.0 mm 0.00 in0.0 mm 0.00 in0.0 mm
01:40 AM 41.0°F5.0°C 37.1°F2.8°C 86% Calm Calm -- 30.15 in1021.0 mb 0.00 in0.0 mm 0.00 in0.0 mm 0.00 in0.0 mm
01:45 AM 41.0°F5.0°C 37.1°F2.8°C 86% Calm Calm -- 30.15 in1021.0 mb 0.00 in0.0 mm 0.00 in0.0 mm 0.00 in0.0 mm
01:50 AM 41.2°F5.1°C 37.6°F3.1°C 87% Calm Calm -- 30.15 in1021.0 mb 0.00 in0.0 mm 0.00 in0.0 mm 0.00 in0.0 mm
01:55 AM 41.1°F5.1°C 37.2°F2.9°C 86% Calm Calm -- 30.15 in1021.0 mb 0.00 in0.0 mm 0.00 in0.0 mm 0.00 in0.0 mm
02:00 AM 40.8°F4.9°C 37.2°F2.9°C 87% Calm Calm -- 30.16 in1021.3 mb 0.00 in0.0 mm 0.00 in0.0 mm 0.00 in0.0 mm
02:05 AM 40.4°F4.7°C 36.5°F2.5°C 86% Calm Calm -- 30.16 in1021.3 mb 0.00 in0.0 mm 0.00 in0.0 mm 0.00 in0.0 mm
02:10 AM 40.2°F4.6°C 36.6°F2.6°C 87% Calm Calm -- 30.16 in1021.3 mb 0.00 in0.0 mm 0.00 in0.0 mm 0.00 in0.0 mm
02:15 AM 40.0°F4.4°C 36.4°F2.4°C 87% Calm Calm -- 30.16 in1021.3 mb 0.00 in0.0 mm 0.00 in0.0 mm 0.00 in0.0 mm
02:20 AM 39.9°F4.4°C 36.4°F2.4°C 87% Calm Calm -- 30.16 in1021.3 mb 0.00 in0.0 mm 0.00 in0.0 mm 0.00 in0.0 mm
02:25 AM 39.9°F4.4°C 36.4°F2.4°C 87% Calm Calm -- 30.16 in1021.3 mb 0.00 in0.0 mm 0.00 in0.0 mm 0.00 in0.0 mm
02:30 AM 39.8°F4.3°C 36.3°F2.4°C 87% Calm Calm -- 30.16 in1021.3 mb 0.00 in0.0 mm 0.00 in0.0 mm 0.00 in0.0 mm
02:35 AM 39.8°F4.3°C 36.3°F2.4°C 87% Calm Calm -- 30.16 in1021.3 mb 0.00 in0.0 mm 0.00 in0.0 mm 0.00 in0.0 mm
02:40 AM 39.7°F4.3°C 36.2°F2.3°C 87% Calm Calm -- 30.16 in1021.3 mb 0.00 in0.0 mm 0.00 in0.0 mm 0.00 in0.0 mm
02:45 AM 39.6°F4.2°C 36.1°F2.3°C 87% Calm Calm -- 30.16 in1021.3 mb 0.00 in0.0 mm 0.00 in0.0 mm 0.00 in0.0 mm
02:50 AM 39.7°F4.3°C 36.2°F2.3°C 87% Calm Calm -- 30.16 in1021.3 mb 0.00 in0.0 mm 0.00 in0.0 mm 0.00 in0.0 mm
02:55 AM 39.6°F4.2°C 36.1°F2.3°C 87% Calm Calm -- 30.16 in1021.3 mb 0.00 in0.0 mm 0.00 in0.0 mm 0.00 in0.0 mm
03:00 AM 39.6°F4.2°C 36.3°F2.4°C 88% Calm Calm -- 30.16 in1021.3 mb 0.00 in0.0 mm 0.00 in0.0 mm 0.00 in0.0 mm
03:05 AM 39.7°F4.3°C 36.4°F2.4°C 88% Calm Calm -- 30.16 in1021.3 mb 0.00 in0.0 mm 0.00 in0.0 mm 0.00 in0.0 mm
03:10 AM 39.6°F4.2°C 36.3°F2.4°C 88% Calm Calm -- 30.16 in1021.3 mb 0.00 in0.0 mm 0.00 in0.0 mm 0.00 in0.0 mm
03:15 AM 39.6°F4.2°C 36.3°F2.4°C 88% Calm Calm -- 30.16 in1021.3 mb 0.00 in0.0 mm 0.00 in0.0 mm 0.00 in0.0 mm
03:20 AM 39.7°F4.3°C 36.4°F2.4°C 88% Calm Calm -- 30.16 in1021.3 mb 0.00 in0.0 mm 0.00 in0.0 mm 0.00 in0.0 mm
03:25 AM 39.8°F4.3°C 36.5°F2.5°C 88% Calm Calm -- 30.16 in1021.3 mb 0.00 in0.0 mm 0.00 in0.0 mm 0.00 in0.0 mm
03:30 AM 39.7°F4.3°C 36.4°F2.4°C 88% Calm Calm -- 30.17 in1021.7 mb 0.00 in0.0 mm 0.00 in0.0 mm 0.00 in0.0 mm
03:35 AM 39.7°F4.3°C 36.4°F2.4°C 88% Calm Calm -- 30.17 in1021.7 mb 0.00 in0.0 mm 0.00 in0.0 mm 0.00 in0.0 mm
03:40 AM 39.8°F4.3°C 36.8°F2.7°C 89% Calm Calm -- 30.17 in1021.7 mb 0.00 in0.0 mm 0.00 in0.0 mm 0.00 in0.0 mm
03:45 AM 39.9°F4.4°C 36.9°F2.7°C 89% Calm Calm -- 30.17 in1021.7 mb 0.00 in0.0 mm 0.00 in0.0 mm 0.00 in0.0 mm
03:50 AM 40.3°F4.6°C 37.3°F2.9°C 89% Calm Calm -- 30.17 in1021.7 mb 0.00 in0.0 mm 0.00 in0.0 mm 0.00 in0.0 mm
03:55 AM 40.7°F4.8°C 37.7°F3.2°C 89% Calm Calm -- 30.17 in1021.7 mb 0.00 in0.0 mm 0.00 in0.0 mm 0.00 in0.0 mm
04:00 AM 41.3°F5.2°C 38.3°F3.5°C 89% Calm Calm -- 30.18 in1022.0 mb 0.00 in0.0 mm 0.00 in0.0 mm 0.00 in0.0 mm
04:10 AM 42.4°F5.8°C 39.4°F4.1°C 89% Calm Calm 1.0 mph1.6 kmh 30.18 in1022.0 mb 0.00 in0.0 mm 0.00 in0.0 mm 0.00 in0.0 mm
04:15 AM 42.5°F5.8°C 39.5°F4.2°C 89% Calm Calm 1.0 mph1.6 kmh 30.18 in1022.0 mb 0.00 in0.0 mm 0.00 in0.0 mm 0.00 in0.0 mm
04:20 AM 42.8°F6.0°C 39.8°F4.3°C 89% Calm Calm -- 30.18 in1022.0 mb 0.00 in0.0 mm 0.00 in0.0 mm 0.00 in0.0 mm
04:25 AM 42.9°F6.1°C 39.9°F4.4°C 89% Calm Calm -- 30.18 in1022.0 mb 0.00 in0.0 mm 0.00 in0.0 mm 0.00 in0.0 mm
04:30 AM 42.9°F6.1°C 39.9°F4.4°C 89% Calm Calm -- 30.18 in1022.0 mb 0.00 in0.0 mm 0.00 in0.0 mm 0.00 in0.0 mm
04:35 AM 42.8°F6.0°C 39.8°F4.3°C 89% Calm Calm -- 30.18 in1022.0 mb 0.00 in0.0 mm 0.00 in0.0 mm 0.00 in0.0 mm
04:40 AM 42.3°F5.7°C 39.3°F4.1°C 89% Calm Calm -- 30.18 in1022.0 mb 0.00 in0.0 mm 0.00 in0.0 mm 0.00 in0.0 mm
04:45 AM 41.7°F5.4°C 38.4°F3.6°C 88% Calm Calm -- 30.18 in1022.0 mb 0.00 in0.0 mm 0.00 in0.0 mm 0.00 in0.0 mm
04:50 AM 41.3°F5.2°C 38.0°F3.3°C 88% Calm Calm 1.0 mph1.6 kmh 30.18 in1022.0 mb 0.00 in0.0 mm 0.00 in0.0 mm 0.00 in0.0 mm
04:55 AM 41.1°F5.1°C 38.1°F3.4°C 89% Calm Calm 1.0 mph1.6 kmh 30.18 in1022.0 mb 0.00 in0.0 mm 0.00 in0.0 mm 0.00 in0.0 mm
05:00 AM 40.8°F4.9°C 37.8°F3.2°C 89% Calm Calm -- 30.19 in1022.4 mb 0.00 in0.0 mm 0.00 in0.0 mm 0.00 in0.0 mm
05:05 AM 40.5°F4.7°C 37.5°F3.1°C 89% Calm Calm -- 30.19 in1022.4 mb 0.00 in0.0 mm 0.00 in0.0 mm 0.00 in0.0 mm
05:10 AM 39.7°F4.3°C 36.4°F2.4°C 88% Calm Calm -- 30.19 in1022.4 mb 0.00 in0.0 mm 0.00 in0.0 mm 0.00 in0.0 mm
05:15 AM 39.4°F4.1°C 36.4°F2.4°C 89% Calm Calm -- 30.20 in1022.7 mb 0.00 in0.0 mm 0.00 in0.0 mm 0.00 in0.0 mm
05:20 AM 39.5°F4.2°C 36.5°F2.5°C 89% Calm Calm -- 30.20 in1022.7 mb 0.00 in0.0 mm 0.00 in0.0 mm 0.00 in0.0 mm
05:25 AM 39.4°F4.1°C 36.4°F2.4°C 89% Calm Calm -- 30.20 in1022.7 mb 0.00 in0.0 mm 0.00 in0.0 mm 0.00 in0.0 mm
05:30 AM 39.2°F4.0°C 36.2°F2.3°C 89% Calm Calm -- 30.20 in1022.7 mb 0.00 in0.0 mm 0.00 in0.0 mm 0.00 in0.0 mm
05:35 AM 39.1°F3.9°C 36.1°F2.3°C 89% Calm Calm -- 30.20 in1022.7 mb 0.00 in0.0 mm 0.00 in0.0 mm 0.00 in0.0 mm
05:40 AM 39.0°F3.9°C 36.0°F2.2°C 89% Calm Calm -- 30.20 in1022.7 mb 0.00 in0.0 mm 0.00 in0.0 mm 0.00 in0.0 mm
05:45 AM 38.9°F3.8°C 35.9°F2.2°C 89% Calm Calm -- 30.20 in1022.7 mb 0.00 in0.0 mm 0.00 in0.0 mm 0.00 in0.0 mm
05:50 AM 38.7°F3.7°C 35.7°F2.1°C 89% Calm Calm -- 30.20 in1022.7 mb 0.00 in0.0 mm 0.00 in0.0 mm 0.00 in0.0 mm
05:55 AM 38.7°F3.7°C 35.7°F2.1°C 89% Calm Calm -- 30.20 in1022.7 mb 0.00 in0.0 mm 0.00 in0.0 mm 0.00 in0.0 mm
06:00 AM 38.8°F3.8°C 35.8°F2.1°C 89% Calm Calm -- 30.21 in1023.0 mb 0.00 in0.0 mm 0.00 in0.0 mm 0.00 in0.0 mm
06:05 AM 38.7°F3.7°C 35.7°F2.1°C 89% Calm Calm -- 30.21 in1023.0 mb 0.00 in0.0 mm 0.00 in0.0 mm 0.00 in0.0 mm
06:10 AM 38.6°F3.7°C 35.6°F2.0°C 89% Calm Calm -- 30.21 in1023.0 mb 0.00 in0.0 mm 0.00 in0.0 mm 0.00 in0.0 mm
06:15 AM 38.6°F3.7°C 35.6°F2.0°C 89% Calm Calm 1.0 mph1.6 kmh 30.21 in1023.0 mb 0.00 in0.0 mm 0.00 in0.0 mm 0.00 in0.0 mm
06:20 AM 38.6°F3.7°C 35.6°F2.0°C 89% Calm Calm 1.0 mph1.6 kmh 30.21 in1023.0 mb 0.00 in0.0 mm 0.00 in0.0 mm 0.00 in0.0 mm
06:25 AM 38.2°F3.4°C 35.2°F1.8°C 89% Calm Calm -- 30.21 in1023.0 mb 0.00 in0.0 mm 0.00 in0.0 mm 0.00 in0.0 mm
06:30 AM 37.8°F3.2°C 34.9°F1.6°C 89% Calm Calm -- 30.22 in1023.4 mb 0.00 in0.0 mm 0.00 in0.0 mm 0.00 in0.0 mm
06:35 AM 37.6°F3.1°C 34.7°F1.5°C 89% Calm Calm -- 30.22 in1023.4 mb 0.00 in0.0 mm 0.00 in0.0 mm 0.00 in0.0 mm
06:40 AM 37.9°F3.3°C 35.2°F1.8°C 90% Calm Calm -- 30.22 in1023.4 mb 0.00 in0.0 mm 0.00 in0.0 mm 0.00 in0.0 mm
06:45 AM 38.0°F3.3°C 35.3°F1.8°C 90% Calm Calm -- 30.23 in1023.7 mb 0.00 in0.0 mm 0.00 in0.0 mm 0.00 in0.0 mm
06:50 AM 38.1°F3.4°C 35.4°F1.9°C 90% Calm Calm -- 30.23 in1023.7 mb 0.00 in0.0 mm 0.00 in0.0 mm 0.00 in0.0 mm
06:55 AM 38.1°F3.4°C 35.4°F1.9°C 90% Calm Calm -- 30.23 in1023.7 mb 0.00 in0.0 mm 0.00 in0.0 mm 0.00 in0.0 mm
07:00 AM 38.0°F3.3°C 35.3°F1.8°C 90% Calm Calm -- 30.23 in1023.7 mb 0.00 in0.0 mm 0.00 in0.0 mm 0.00 in0.0 mm
07:05 AM 37.9°F3.3°C 35.2°F1.8°C 90% Calm Calm -- 30.23 in1023.7 mb 0.00 in0.0 mm 0.00 in0.0 mm 0.00 in0.0 mm
07:10 AM 37.7°F3.2°C 35.0°F1.7°C 90% Calm Calm -- 30.23 in1023.7 mb 0.01 in0.3 mm 0.12 in3.0 mm 0.01 in0.3 mm
07:15 AM 37.7°F3.2°C 35.0°F1.7°C 90% Calm Calm -- 30.25 in1024.4 mb 0.01 in0.3 mm 0.00 in0.0 mm 0.01 in0.3 mm
07:20 AM 37.6°F3.1°C 34.9°F1.6°C 90% Calm Calm -- 30.25 in1024.4 mb 0.01 in0.3 mm 0.00 in0.0 mm 0.01 in0.3 mm
07:25 AM 37.6°F3.1°C 34.9°F1.6°C 90% Calm Calm -- 30.25 in1024.4 mb 0.01 in0.3 mm 0.00 in0.0 mm 0.01 in0.3 mm
07:30 AM 37.6°F3.1°C 34.9°F1.6°C 90% Calm Calm -- 30.25 in1024.4 mb 0.01 in0.3 mm 0.00 in0.0 mm 0.01 in0.3 mm
07:35 AM 37.6°F3.1°C 34.9°F1.6°C 90% Calm Calm -- 30.25 in1024.4 mb 0.01 in0.3 mm 0.00 in0.0 mm 0.01 in0.3 mm
07:40 AM 37.5°F3.1°C 34.8°F1.6°C 90% Calm Calm -- 30.25 in1024.4 mb 0.01 in0.3 mm 0.00 in0.0 mm 0.01 in0.3 mm
07:45 AM 37.6°F3.1°C 34.9°F1.6°C 90% Calm Calm -- 30.26 in1024.7 mb 0.01 in0.3 mm 0.00 in0.0 mm 0.01 in0.3 mm
07:50 AM 37.8°F3.2°C 35.1°F1.7°C 90% Calm Calm -- 30.26 in1024.7 mb 0.01 in0.3 mm 0.00 in0.0 mm 0.01 in0.3 mm
07:55 AM 37.9°F3.3°C 35.2°F1.8°C 90% Calm Calm -- 30.26 in1024.7 mb 0.01 in0.3 mm 0.00 in0.0 mm 0.01 in0.3 mm
08:00 AM 38.2°F3.4°C 35.8°F2.1°C 91% Calm Calm -- 30.26 in1024.7 mb 0.01 in0.3 mm 0.00 in0.0 mm 0.01 in0.3 mm
08:05 AM 38.3°F3.5°C 35.9°F2.2°C 91% Calm Calm -- 30.26 in1024.7 mb 0.01 in0.3 mm 0.00 in0.0 mm 0.01 in0.3 mm
08:10 AM 38.4°F3.6°C 35.7°F2.1°C 90% Calm Calm -- 30.26 in1024.7 mb 0.00 in0.0 mm 0.00 in0.0 mm 0.01 in0.3 mm
08:15 AM 38.3°F3.5°C 35.6°F2.0°C 90% Calm Calm -- 30.27 in1025.1 mb 0.00 in0.0 mm 0.00 in0.0 mm 0.01 in0.3 mm
08:20 AM 38.3°F3.5°C 35.9°F2.2°C 91% Calm Calm -- 30.27 in1025.1 mb 0.00 in0.0 mm 0.00 in0.0 mm 0.01 in0.3 mm
08:25 AM 38.4°F3.6°C 35.7°F2.1°C 90% Calm Calm -- 30.27 in1025.1 mb 0.00 in0.0 mm 0.00 in0.0 mm 0.01 in0.3 mm
08:30 AM 38.5°F3.6°C 36.1°F2.3°C 91% Calm Calm -- 30.27 in1025.1 mb 0.00 in0.0 mm 0.00 in0.0 mm 0.01 in0.3 mm
08:35 AM 39.2°F4.0°C 36.8°F2.7°C 91% Calm Calm -- 30.27 in1025.1 mb 0.00 in0.0 mm 0.00 in0.0 mm 0.01 in0.3 mm
08:40 AM 40.6°F4.8°C 38.2°F3.4°C 91% Calm Calm -- 30.27 in1025.1 mb 0.00 in0.0 mm 0.00 in0.0 mm 0.01 in0.3 mm
08:45 AM 42.0°F5.6°C 39.6°F4.2°C 91% Calm Calm -- 30.28 in1025.4 mb 0.00 in0.0 mm 0.00 in0.0 mm 0.01 in0.3 mm
08:50 AM 43.3°F6.3°C 40.9°F4.9°C 91% 0.1 mph N0.2 kmh N 2.0 mph3.2 kmh 30.28 in1025.4 mb 0.00 in0.0 mm 0.00 in0.0 mm 0.01 in0.3 mm
08:55 AM 44.0°F6.7°C 41.5°F5.3°C 91% Calm Calm 2.0 mph3.2 kmh 30.28 in1025.4 mb 0.00 in0.0 mm 0.00 in0.0 mm 0.01 in0.3 mm
09:00 AM 45.0°F7.2°C 42.5°F5.8°C 91% Calm Calm 1.0 mph1.6 kmh 30.28 in1025.4 mb 0.00 in0.0 mm 0.00 in0.0 mm 0.01 in0.3 mm
09:05 AM 45.6°F7.6°C 43.1°F6.2°C 91% 0.7 mph NE1.1 kmh NE 4.0 mph6.4 kmh 30.28 in1025.4 mb 0.00 in0.0 mm 0.00 in0.0 mm 0.01 in0.3 mm
09:10 AM 46.2°F7.9°C 43.7°F6.5°C 91% 1.2 mph NE1.9 kmh NE 4.0 mph6.4 kmh 30.28 in1025.4 mb 0.00 in0.0 mm 0.00 in0.0 mm 0.01 in0.3 mm
09:15 AM 46.8°F8.2°C 44.3°F6.8°C 91% 1.4 mph NE2.3 kmh NE 5.0 mph8.0 kmh 30.29 in1025.7 mb 0.00 in0.0 mm 0.00 in0.0 mm 0.01 in0.3 mm
09:20 AM 47.2°F8.4°C 44.7°F7.1°C 91% 0.8 mph N1.3 kmh N 5.0 mph8.0 kmh 30.29 in1025.7 mb 0.00 in0.0 mm 0.00 in0.0 mm 0.01 in0.3 mm
09:25 AM 47.8°F8.8°C 45.3°F7.4°C 91% 0.2 mph NNE0.3 kmh NNE 4.0 mph6.4 kmh 30.29 in1025.7 mb 0.00 in0.0 mm 0.00 in0.0 mm 0.01 in0.3 mm
09:30 AM 48.0°F8.9°C 45.2°F7.3°C 90% Calm Calm 2.0 mph3.2 kmh 30.30 in1026.1 mb 0.00 in0.0 mm 0.00 in0.0 mm 0.01 in0.3 mm
09:35 AM 48.3°F9.1°C 45.5°F7.5°C 90% Calm Calm 1.0 mph1.6 kmh 30.30 in1026.1 mb 0.00 in0.0 mm 0.00 in0.0 mm 0.01 in0.3 mm
09:40 AM 48.9°F9.4°C 46.1°F7.8°C 90% Calm Calm 1.0 mph1.6 kmh 30.30 in1026.1 mb 0.00 in0.0 mm 0.00 in0.0 mm 0.01 in0.3 mm
09:45 AM 49.7°F9.8°C 46.9°F8.3°C 90% 0.2 mph NNE0.3 kmh NNE 1.0 mph1.6 kmh 30.30 in1026.1 mb 0.00 in0.0 mm 0.00 in0.0 mm 0.01 in0.3 mm
09:50 AM 49.8°F9.9°C 46.7°F8.2°C 89% Calm Calm 1.0 mph1.6 kmh 30.30 in1026.1 mb 0.00 in0.0 mm 0.00 in0.0 mm 0.01 in0.3 mm
09:55 AM 49.4°F9.7°C 46.3°F7.9°C 89% 0.9 mph NNE1.4 kmh NNE 3.0 mph4.8 kmh 30.30 in1026.1 mb 0.00 in0.0 mm 0.00 in0.0 mm 0.01 in0.3 mm
10:00 AM 49.3°F9.6°C 45.9°F7.7°C 88% 0.7 mph NNE1.1 kmh NNE 3.0 mph4.8 kmh 30.30 in1026.1 mb 0.00 in0.0 mm 0.00 in0.0 mm 0.01 in0.3 mm
10:05 AM 49.4°F9.7°C 46.0°F7.8°C 88% Calm Calm 2.0 mph3.2 kmh 30.30 in1026.1 mb 0.00 in0.0 mm 0.00 in0.0 mm 0.01 in0.3 mm
10:10 AM 49.5°F9.7°C 46.1°F7.8°C 88% 0.2 mph NNE0.3 kmh NNE 1.0 mph1.6 kmh 30.30 in1026.1 mb 0.00 in0.0 mm 0.00 in0.0 mm 0.01 in0.3 mm
10:15 AM 49.6°F9.8°C 46.2°F7.9°C 88% 0.1 mph NNE0.2 kmh NNE 1.0 mph1.6 kmh 30.30 in1026.1 mb 0.00 in0.0 mm 0.00 in0.0 mm 0.01 in0.3 mm
10:20 AM 49.8°F9.9°C 46.1°F7.8°C 87% 0.2 mph N0.3 kmh N 2.0 mph3.2 kmh 30.30 in1026.1 mb 0.00 in0.0 mm 0.00 in0.0 mm 0.01 in0.3 mm
10:25 AM 50.1°F10.1°C 46.4°F8.0°C 87% 0.9 mph N1.4 kmh N 3.0 mph4.8 kmh 30.30 in1026.1 mb 0.00 in0.0 mm 0.00 in0.0 mm 0.01 in0.3 mm
10:30 AM 50.5°F10.3°C 46.8°F8.2°C 87% 0.1 mph N0.2 kmh N 3.0 mph4.8 kmh 30.31 in1026.4 mb 0.00 in0.0 mm 0.00 in0.0 mm 0.01 in0.3 mm
10:35 AM 50.8°F10.4°C 46.8°F8.2°C 86% 0.1 mph N0.2 kmh N 2.0 mph3.2 kmh 30.31 in1026.4 mb 0.00 in0.0 mm 0.00 in0.0 mm 0.01 in0.3 mm
10:40 AM 51.2°F10.7°C 47.2°F8.4°C 86% 0.1 mph N0.2 kmh N 1.0 mph1.6 kmh 30.31 in1026.4 mb 0.00 in0.0 mm 0.00 in0.0 mm 0.01 in0.3 mm
10:45 AM 52.1°F11.2°C 48.0°F8.9°C 86% 0.3 mph N0.5 kmh N 2.0 mph3.2 kmh 30.30 in1026.1 mb 0.00 in0.0 mm 0.00 in0.0 mm 0.01 in0.3 mm
10:50 AM 53.9°F12.2°C 48.9°F9.4°C 83% 0.1 mph N0.2 kmh N 2.0 mph3.2 kmh 30.30 in1026.1 mb 0.00 in0.0 mm 0.00 in0.0 mm 0.01 in0.3 mm
10:55 AM 55.5°F13.1°C 49.1°F9.5°C 79% 0.4 mph N0.6 kmh N 4.0 mph6.4 kmh 30.30 in1026.1 mb 0.00 in0.0 mm 0.00 in0.0 mm 0.01 in0.3 mm
11:00 AM 56.7°F13.7°C 48.9°F9.4°C 75% Calm Calm 4.0 mph6.4 kmh 30.30 in1026.1 mb 0.00 in0.0 mm 0.00 in0.0 mm 0.01 in0.3 mm
11:05 AM 57.5°F14.2°C 48.2°F9.0°C 71% 0.5 mph N0.8 kmh N 3.0 mph4.8 kmh 30.30 in1026.1 mb 0.00 in0.0 mm 0.00 in0.0 mm 0.01 in0.3 mm
11:10 AM 58.1°F14.5°C 48.0°F8.9°C 69% 0.4 mph NNE0.6 kmh NNE 3.0 mph4.8 kmh 30.30 in1026.1 mb 0.00 in0.0 mm 0.00 in0.0 mm 0.01 in0.3 mm
11:15 AM 58.3°F14.6°C 47.4°F8.6°C 67% 0.3 mph NNW0.5 kmh NNW 3.0 mph4.8 kmh 30.30 in1026.1 mb 0.00 in0.0 mm 0.00 in0.0 mm 0.01 in0.3 mm
11:20 AM 58.8°F14.9°C 47.5°F8.6°C 66% 0.7 mph NNE1.1 kmh NNE 3.0 mph4.8 kmh 30.30 in1026.1 mb 0.00 in0.0 mm 0.00 in0.0 mm 0.01 in0.3 mm
11:25 AM 58.4°F14.7°C 46.3°F7.9°C 64% 0.6 mph N1.0 kmh N 3.0 mph4.8 kmh 30.30 in1026.1 mb 0.00 in0.0 mm 0.00 in0.0 mm 0.01 in0.3 mm
11:30 AM 58.5°F14.7°C 45.5°F7.5°C 62% 0.7 mph WNW1.1 kmh WNW 2.0 mph3.2 kmh 30.29 in1025.7 mb 0.00 in0.0 mm 0.00 in0.0 mm 0.01 in0.3 mm
11:35 AM 59.3°F15.2°C 46.7°F8.2°C 63% Calm Calm 2.0 mph3.2 kmh 30.29 in1025.7 mb 0.00 in0.0 mm 0.00 in0.0 mm 0.01 in0.3 mm
11:40 AM 60.6°F15.9°C 46.6°F8.1°C 60% Calm Calm 1.0 mph1.6 kmh 30.29 in1025.7 mb 0.00 in0.0 mm 0.00 in0.0 mm 0.01 in0.3 mm
11:45 AM 60.1°F15.6°C 46.2°F7.9°C 60% 1.3 mph W2.1 kmh W 5.0 mph8.0 kmh 30.29 in1025.7 mb 0.00 in0.0 mm 0.00 in0.0 mm 0.01 in0.3 mm
11:50 AM 59.8°F15.4°C 45.9°F7.7°C 60% 2.1 mph W3.4 kmh W 6.0 mph9.7 kmh 30.29 in1025.7 mb 0.00 in0.0 mm 0.00 in0.0 mm 0.01 in0.3 mm
11:55 AM 60.0°F15.6°C 46.1°F7.8°C 60% 1.1 mph W1.8 kmh W 6.0 mph9.7 kmh 30.29 in1025.7 mb 0.00 in0.0 mm 0.00 in0.0 mm 0.01 in0.3 mm
12:00 PM 60.6°F15.9°C 45.7°F7.6°C 58% 0.9 mph W1.4 kmh W 6.0 mph9.7 kmh 30.29 in1025.7 mb 0.00 in0.0 mm 0.00 in0.0 mm 0.01 in0.3 mm
12:05 PM 60.7°F15.9°C 44.4°F6.9°C 55% 1.3 mph W2.1 kmh W 3.0 mph4.8 kmh 30.29 in1025.7 mb 0.00 in0.0 mm 0.00 in0.0 mm 0.01 in0.3 mm
12:10 PM 61.2°F16.2°C 42.9°F6.1°C 51% 0.2 mph WNW0.3 kmh WNW 3.0 mph4.8 kmh 30.29 in1025.7 mb 0.00 in0.0 mm 0.00 in0.0 mm 0.01 in0.3 mm
12:15 PM 61.4°F16.3°C 44.1°F6.7°C 53% 1.2 mph W1.9 kmh W 6.0 mph9.7 kmh 30.28 in1025.4 mb 0.00 in0.0 mm 0.00 in0.0 mm 0.01 in0.3 mm
12:20 PM 61.3°F16.3°C 45.5°F7.5°C 56% 1.1 mph W1.8 kmh W 6.0 mph9.7 kmh 30.28 in1025.4 mb 0.00 in0.0 mm 0.00 in0.0 mm 0.01 in0.3 mm
12:25 PM 61.8°F16.6°C 45.9°F7.7°C 56% 1.1 mph NW1.8 kmh NW 5.0 mph8.0 kmh 30.28 in1025.4 mb 0.00 in0.0 mm 0.00 in0.0 mm 0.01 in0.3 mm
12:30 PM 62.9°F17.2°C 46.5°F8.1°C 55% 1.1 mph NNW1.8 kmh NNW 5.0 mph8.0 kmh 30.28 in1025.4 mb 0.00 in0.0 mm 0.00 in0.0 mm 0.01 in0.3 mm
12:35 PM 63.2°F17.3°C 46.3°F7.9°C 54% 1.6 mph N2.6 kmh N 5.0 mph8.0 kmh 30.28 in1025.4 mb 0.00 in0.0 mm 0.00 in0.0 mm 0.01 in0.3 mm
12:40 PM 62.6°F17.0°C 45.2°F7.3°C 53% 1.4 mph W2.3 kmh W 5.0 mph8.0 kmh 30.28 in1025.4 mb 0.00 in0.0 mm 0.00 in0.0 mm 0.01 in0.3 mm
12:45 PM 62.4°F16.9°C 46.0°F7.8°C 55% 1.1 mph W1.8 kmh W 5.0 mph8.0 kmh 30.27 in1025.1 mb 0.00 in0.0 mm 0.00 in0.0 mm 0.01 in0.3 mm
12:50 PM 61.8°F16.6°C 45.5°F7.5°C 55% 3.1 mph W5.0 kmh W 7.0 mph11.3 kmh 30.27 in1025.1 mb 0.00 in0.0 mm 0.00 in0.0 mm 0.01 in0.3 mm
12:55 PM 62.7°F17.1°C 45.3°F7.4°C 53% 1.1 mph WNW1.8 kmh WNW 7.0 mph11.3 kmh 30.27 in1025.1 mb 0.00 in0.0 mm 0.00 in0.0 mm 0.01 in0.3 mm
01:00 PM 63.0°F17.2°C 45.6°F7.6°C 53% 1.4 mph W2.3 kmh W 6.0 mph9.7 kmh 30.27 in1025.1 mb 0.00 in0.0 mm 0.00 in0.0 mm 0.01 in0.3 mm
01:05 PM 62.6°F17.0°C 46.2°F7.9°C 55% 2.7 mph W4.3 kmh W 6.0 mph9.7 kmh 30.27 in1025.1 mb 0.00 in0.0 mm 0.00 in0.0 mm 0.01 in0.3 mm
01:10 PM 63.4°F17.4°C 46.9°F8.3°C 55% 0.9 mph W1.4 kmh W 6.0 mph9.7 kmh 30.27 in1025.1 mb 0.00 in0.0 mm 0.00 in0.0 mm 0.01 in0.3 mm
01:15 PM 64.0°F17.8°C 45.5°F7.5°C 51% 1.1 mph NW1.8 kmh NW 4.0 mph6.4 kmh 30.26 in1024.7 mb 0.00 in0.0 mm 0.00 in0.0 mm 0.01 in0.3 mm
01:20 PM 63.4°F17.4°C 45.5°F7.5°C 52% 0.7 mph N1.1 kmh N 4.0 mph6.4 kmh 30.26 in1024.7 mb 0.00 in0.0 mm 0.00 in0.0 mm 0.01 in0.3 mm
01:25 PM 64.2°F17.9°C 46.7°F8.2°C 53% 0.8 mph NE1.3 kmh NE 3.0 mph4.8 kmh 30.26 in1024.7 mb 0.00 in0.0 mm 0.00 in0.0 mm 0.01 in0.3 mm
01:30 PM 65.1°F18.4°C 46.5°F8.1°C 51% 1.8 mph NNW2.9 kmh NNW 4.0 mph6.4 kmh 30.26 in1024.7 mb 0.00 in0.0 mm 0.00 in0.0 mm 0.01 in0.3 mm
01:35 PM 64.6°F18.1°C 46.1°F7.8°C 51% 2.0 mph W3.2 kmh W 8.0 mph12.9 kmh 30.26 in1024.7 mb 0.00 in0.0 mm 0.00 in0.0 mm 0.01 in0.3 mm
01:40 PM 64.1°F17.8°C 45.6°F7.6°C 51% 0.9 mph WSW1.4 kmh WSW 8.0 mph12.9 kmh 30.26 in1024.7 mb 0.00 in0.0 mm 0.00 in0.0 mm 0.01 in0.3 mm
01:45 PM 65.2°F18.4°C 46.1°F7.8°C 50% 1.3 mph NW2.1 kmh NW 5.0 mph8.0 kmh 30.25 in1024.4 mb 0.00 in0.0 mm 0.00 in0.0 mm 0.01 in0.3 mm
01:50 PM 65.5°F18.6°C 45.3°F7.4°C 48% 1.6 mph NNW2.6 kmh NNW 5.0 mph8.0 kmh 30.25 in1024.4 mb 0.00 in0.0 mm 0.00 in0.0 mm 0.01 in0.3 mm
01:55 PM 65.4°F18.6°C 45.2°F7.3°C 48% 1.2 mph NE1.9 kmh NE 5.0 mph8.0 kmh 30.25 in1024.4 mb 0.00 in0.0 mm 0.00 in0.0 mm 0.01 in0.3 mm
02:00 PM 66.0°F18.9°C 45.2°F7.3°C 47% 0.2 mph SW0.3 kmh SW 5.0 mph8.0 kmh 30.24 in1024.0 mb 0.00 in0.0 mm 0.00 in0.0 mm 0.01 in0.3 mm
02:05 PM 65.9°F18.8°C 45.6°F7.6°C 48% 1.4 mph NW2.3 kmh NW 4.0 mph6.4 kmh 30.24 in1024.0 mb 0.00 in0.0 mm 0.00 in0.0 mm 0.01 in0.3 mm
02:10 PM 65.4°F18.6°C 44.6°F7.0°C 47% 1.4 mph WSW2.3 kmh WSW 3.0 mph4.8 kmh 30.24 in1024.0 mb 0.00 in0.0 mm 0.00 in0.0 mm 0.01 in0.3 mm
02:15 PM 65.5°F18.6°C 44.2°F6.8°C 46% 1.4 mph W2.3 kmh W 3.0 mph4.8 kmh 30.23 in1023.7 mb 0.00 in0.0 mm 0.00 in0.0 mm 0.01 in0.3 mm
02:20 PM 65.6°F18.7°C 44.8°F7.1°C 47% 1.0 mph W1.6 kmh W 4.0 mph6.4 kmh 30.23 in1023.7 mb 0.00 in0.0 mm 0.00 in0.0 mm 0.01 in0.3 mm
02:25 PM 65.7°F18.7°C 42.6°F5.9°C 43% 1.1 mph W1.8 kmh W 4.0 mph6.4 kmh 30.23 in1023.7 mb 0.00 in0.0 mm 0.00 in0.0 mm 0.01 in0.3 mm
02:30 PM 65.7°F18.7°C 42.6°F5.9°C 43% 1.4 mph W2.3 kmh W 3.0 mph4.8 kmh 30.23 in1023.7 mb 0.00 in0.0 mm 0.00 in0.0 mm 0.01 in0.3 mm
02:35 PM 66.3°F19.1°C 43.7°F6.5°C 44% 0.4 mph W0.6 kmh W 3.0 mph4.8 kmh 30.23 in1023.7 mb 0.00 in0.0 mm 0.00 in0.0 mm 0.01 in0.3 mm
02:40 PM 66.7°F19.3°C 44.7°F7.1°C 45% 0.9 mph SE1.4 kmh SE 3.0 mph4.8 kmh 30.23 in1023.7 mb 0.00 in0.0 mm 0.00 in0.0 mm 0.01 in0.3 mm
02:45 PM 66.6°F19.2°C 44.0°F6.7°C 44% 1.7 mph NE2.7 kmh NE 6.0 mph9.7 kmh 30.23 in1023.7 mb 0.00 in0.0 mm 0.00 in0.0 mm 0.01 in0.3 mm
02:50 PM 66.1°F18.9°C 41.7°F5.4°C 41% 2.0 mph N3.2 kmh N 6.0 mph9.7 kmh 30.23 in1023.7 mb 0.00 in0.0 mm 0.00 in0.0 mm 0.01 in0.3 mm
02:55 PM 66.9°F19.4°C 43.1°F6.2°C 42% 0.2 mph N0.3 kmh N 5.0 mph8.0 kmh 30.23 in1023.7 mb 0.00 in0.0 mm 0.00 in0.0 mm 0.01 in0.3 mm
03:00 PM 66.2°F19.0°C 41.2°F5.1°C 40% 1.4 mph W2.3 kmh W 3.0 mph4.8 kmh 30.23 in1023.7 mb 0.00 in0.0 mm 0.00 in0.0 mm 0.01 in0.3 mm
03:05 PM 65.4°F18.6°C 40.4°F4.7°C 40% 2.8 mph SW4.5 kmh SW 8.0 mph12.9 kmh 30.23 in1023.7 mb 0.00 in0.0 mm 0.00 in0.0 mm 0.01 in0.3 mm
03:10 PM 65.8°F18.8°C 41.4°F5.2°C 41% 1.4 mph SSW2.3 kmh SSW 8.0 mph12.9 kmh 30.23 in1023.7 mb 0.00 in0.0 mm 0.00 in0.0 mm 0.01 in0.3 mm
03:15 PM 65.9°F18.8°C 41.5°F5.3°C 41% 2.3 mph SW3.7 kmh SW 7.0 mph11.3 kmh 30.23 in1023.7 mb 0.00 in0.0 mm 0.00 in0.0 mm 0.01 in0.3 mm
03:20 PM 65.5°F18.6°C 42.4°F5.8°C 43% 2.4 mph SW3.9 kmh SW 7.0 mph11.3 kmh 30.23 in1023.7 mb 0.00 in0.0 mm 0.00 in0.0 mm 0.01 in0.3 mm
03:25 PM 66.2°F19.0°C 42.4°F5.8°C 42% 1.0 mph SW1.6 kmh SW 7.0 mph11.3 kmh 30.23 in1023.7 mb 0.00 in0.0 mm 0.00 in0.0 mm 0.01 in0.3 mm
03:30 PM 66.0°F18.9°C 41.0°F5.0°C 40% 0.8 mph SW1.3 kmh SW 3.0 mph4.8 kmh 30.23 in1023.7 mb 0.00 in0.0 mm 0.00 in0.0 mm 0.01 in0.3 mm
03:35 PM 66.6°F19.2°C 41.5°F5.3°C 40% 0.4 mph NNW0.6 kmh NNW 3.0 mph4.8 kmh 30.23 in1023.7 mb 0.00 in0.0 mm 0.00 in0.0 mm 0.01 in0.3 mm
03:40 PM 67.2°F19.6°C 43.3°F6.3°C 42% 0.5 mph SSE0.8 kmh SSE 4.0 mph6.4 kmh 30.23 in1023.7 mb 0.00 in0.0 mm 0.00 in0.0 mm 0.01 in0.3 mm
03:45 PM 66.1°F18.9°C 41.1°F5.1°C 40% 1.9 mph SSE3.1 kmh SSE 6.0 mph9.7 kmh 30.23 in1023.7 mb 0.00 in0.0 mm 0.00 in0.0 mm 0.01 in0.3 mm
03:50 PM 65.9°F18.8°C 41.5°F5.3°C 41% 1.3 mph SSE2.1 kmh SSE 6.0 mph9.7 kmh 30.23 in1023.7 mb 0.00 in0.0 mm 0.00 in0.0 mm 0.01 in0.3 mm
03:55 PM 66.2°F19.0°C 43.6°F6.4°C 44% 1.3 mph S2.1 kmh S 6.0 mph9.7 kmh 30.23 in1023.7 mb 0.00 in0.0 mm 0.00 in0.0 mm 0.01 in0.3 mm
04:00 PM 65.9°F18.8°C 41.5°F5.3°C 41% 1.3 mph S2.1 kmh S 6.0 mph9.7 kmh 30.23 in1023.7 mb 0.00 in0.0 mm 0.00 in0.0 mm 0.01 in0.3 mm
04:05 PM 65.9°F18.8°C 42.2°F5.7°C 42% 1.8 mph SE2.9 kmh SE 4.0 mph6.4 kmh 30.23 in1023.7 mb 0.00 in0.0 mm 0.00 in0.0 mm 0.01 in0.3 mm
04:10 PM 66.1°F18.9°C 41.7°F5.4°C 41% Calm Calm 4.0 mph6.4 kmh 30.23 in1023.7 mb 0.00 in0.0 mm 0.00 in0.0 mm 0.01 in0.3 mm
04:15 PM 65.6°F18.7°C 43.7°F6.5°C 45% 3.5 mph SW5.6 kmh SW 8.0 mph12.9 kmh 30.23 in1023.7 mb 0.00 in0.0 mm 0.00 in0.0 mm 0.01 in0.3 mm
04:20 PM 65.4°F18.6°C 41.1°F5.1°C 41% 1.7 mph SSW2.7 kmh SSW 8.0 mph12.9 kmh 30.23 in1023.7 mb 0.00 in0.0 mm 0.00 in0.0 mm 0.01 in0.3 mm
04:25 PM 65.6°F18.7°C 40.6°F4.8°C 40% Calm Calm 6.0 mph9.7 kmh 30.23 in1023.7 mb 0.00 in0.0 mm 0.00 in0.0 mm 0.01 in0.3 mm
04:30 PM 65.4°F18.6°C 42.3°F5.7°C 43% 1.8 mph SW2.9 kmh SW 7.0 mph11.3 kmh 30.23 in1023.7 mb 0.00 in0.0 mm 0.00 in0.0 mm 0.01 in0.3 mm
04:35 PM 64.3°F17.9°C 41.9°F5.5°C 44% 3.9 mph WSW6.3 kmh WSW 7.0 mph11.3 kmh 30.23 in1023.7 mb 0.00 in0.0 mm 0.00 in0.0 mm 0.01 in0.3 mm
04:40 PM 64.3°F17.9°C 43.6°F6.4°C 47% 4.3 mph WSW6.9 kmh WSW 9.0 mph14.5 kmh 30.23 in1023.7 mb 0.00 in0.0 mm 0.00 in0.0 mm 0.01 in0.3 mm
04:45 PM 64.7°F18.2°C 43.4°F6.3°C 46% 2.8 mph WSW4.5 kmh WSW 9.0 mph14.5 kmh 30.23 in1023.7 mb 0.00 in0.0 mm 0.00 in0.0 mm 0.01 in0.3 mm
04:50 PM 64.4°F18.0°C 45.9°F7.7°C 51% 5.5 mph SW8.9 kmh SW 10.0 mph16.1 kmh 30.23 in1023.7 mb 0.00 in0.0 mm 0.00 in0.0 mm 0.01 in0.3 mm
04:55 PM 62.7°F17.1°C 46.8°F8.2°C 56% 10.5 mph WSW16.9 kmh WSW 17.0 mph27.4 kmh 30.23 in1023.7 mb 0.00 in0.0 mm 0.00 in0.0 mm 0.01 in0.3 mm
05:00 PM 62.3°F16.8°C 46.4°F8.0°C 56% 7.6 mph SW12.2 kmh SW 17.0 mph27.4 kmh 30.23 in1023.7 mb 0.00 in0.0 mm 0.00 in0.0 mm 0.01 in0.3 mm
05:05 PM 62.3°F16.8°C 46.9°F8.3°C 57% 3.9 mph SW6.3 kmh SW 13.0 mph20.9 kmh 30.23 in1023.7 mb 0.00 in0.0 mm 0.00 in0.0 mm 0.01 in0.3 mm
05:10 PM 62.0°F16.7°C 47.1°F8.4°C 58% 5.6 mph SW9.0 kmh SW 10.0 mph16.1 kmh 30.23 in1023.7 mb 0.00 in0.0 mm 0.00 in0.0 mm 0.01 in0.3 mm
05:15 PM 61.8°F16.6°C 47.3°F8.5°C 59% 4.4 mph SW7.1 kmh SW 11.0 mph17.7 kmh 30.23 in1023.7 mb 0.00 in0.0 mm 0.00 in0.0 mm 0.01 in0.3 mm
05:20 PM 61.8°F16.6°C 47.3°F8.5°C 59% 3.3 mph SW5.3 kmh SW 11.0 mph17.7 kmh 30.23 in1023.7 mb 0.00 in0.0 mm 0.00 in0.0 mm 0.01 in0.3 mm
05:25 PM 61.6°F16.4°C 47.6°F8.7°C 60% 2.6 mph SW4.2 kmh SW 7.0 mph11.3 kmh 30.23 in1023.7 mb 0.00 in0.0 mm 0.00 in0.0 mm 0.01 in0.3 mm
05:30 PM 61.4°F16.3°C 47.4°F8.6°C 60% 2.6 mph SW4.2 kmh SW 7.0 mph11.3 kmh 30.24 in1024.0 mb 0.00 in0.0 mm 0.00 in0.0 mm 0.01 in0.3 mm
05:35 PM 61.3°F16.3°C 47.3°F8.5°C 60% 1.8 mph SW2.9 kmh SW 7.0 mph11.3 kmh 30.24 in1024.0 mb 0.00 in0.0 mm 0.00 in0.0 mm 0.01 in0.3 mm
05:40 PM 61.2°F16.2°C 47.2°F8.4°C 60% 1.4 mph S2.3 kmh S 6.0 mph9.7 kmh 30.24 in1024.0 mb 0.00 in0.0 mm 0.00 in0.0 mm 0.01 in0.3 mm
05:45 PM 61.0°F16.1°C 47.5°F8.6°C 61% 2.2 mph SE3.5 kmh SE 5.0 mph8.0 kmh 30.25 in1024.4 mb 0.00 in0.0 mm 0.00 in0.0 mm 0.01 in0.3 mm
05:50 PM 60.5°F15.8°C 47.4°F8.6°C 62% 2.4 mph SE3.9 kmh SE 6.0 mph9.7 kmh 30.25 in1024.4 mb 0.00 in0.0 mm 0.00 in0.0 mm 0.01 in0.3 mm
05:55 PM 59.9°F15.5°C 47.3°F8.5°C 63% 3.2 mph ESE5.1 kmh ESE 6.0 mph9.7 kmh 30.25 in1024.4 mb 0.00 in0.0 mm 0.00 in0.0 mm 0.01 in0.3 mm
06:00 PM 59.3°F15.2°C 47.1°F8.4°C 64% 3.4 mph ESE5.5 kmh ESE 6.0 mph9.7 kmh 30.25 in1024.4 mb 0.00 in0.0 mm 0.00 in0.0 mm 0.01 in0.3 mm
06:05 PM 58.9°F14.9°C 47.2°F8.4°C 65% 3.0 mph ESE4.8 kmh ESE 6.0 mph9.7 kmh 30.25 in1024.4 mb 0.00 in0.0 mm 0.00 in0.0 mm 0.01 in0.3 mm
06:10 PM 58.4°F14.7°C 47.1°F8.4°C 66% 2.8 mph E4.5 kmh E 6.0 mph9.7 kmh 30.25 in1024.4 mb 0.00 in0.0 mm 0.00 in0.0 mm 0.01 in0.3 mm
06:15 PM 58.2°F14.6°C 47.3°F8.5°C 67% 2.4 mph ESE3.9 kmh ESE 5.0 mph8.0 kmh 30.25 in1024.4 mb 0.00 in0.0 mm 0.00 in0.0 mm 0.01 in0.3 mm
06:20 PM 57.8°F14.3°C 46.9°F8.3°C 67% 1.7 mph E2.7 kmh E 5.0 mph8.0 kmh 30.25 in1024.4 mb 0.00 in0.0 mm 0.00 in0.0 mm 0.01 in0.3 mm
06:25 PM 57.6°F14.2°C 47.1°F8.4°C 68% 1.8 mph E2.9 kmh E 4.0 mph6.4 kmh 30.25 in1024.4 mb 0.00 in0.0 mm 0.00 in0.0 mm 0.01 in0.3 mm
06:30 PM 57.4°F14.1°C 47.3°F8.5°C 69% 1.3 mph E2.1 kmh E 4.0 mph6.4 kmh 30.25 in1024.4 mb 0.00 in0.0 mm 0.00 in0.0 mm 0.01 in0.3 mm
06:35 PM 57.2°F14.0°C 47.1°F8.4°C 69% 0.3 mph E0.5 kmh E 3.0 mph4.8 kmh 30.25 in1024.4 mb 0.00 in0.0 mm 0.00 in0.0 mm 0.01 in0.3 mm
06:40 PM 56.9°F13.8°C 47.2°F8.4°C 70% Calm Calm 2.0 mph3.2 kmh 30.25 in1024.4 mb 0.00 in0.0 mm 0.00 in0.0 mm 0.01 in0.3 mm
06:45 PM 56.4°F13.6°C 46.7°F8.2°C 70% Calm Calm -- 30.25 in1024.4 mb 0.00 in0.0 mm 0.00 in0.0 mm 0.01 in0.3 mm
06:50 PM 56.1°F13.4°C 46.8°F8.2°C 71% Calm Calm -- 30.25 in1024.4 mb 0.00 in0.0 mm 0.00 in0.0 mm 0.01 in0.3 mm
06:55 PM 55.6°F13.1°C 46.7°F8.2°C 72% Calm Calm -- 30.25 in1024.4 mb 0.00 in0.0 mm 0.00 in0.0 mm 0.01 in0.3 mm
07:00 PM 55.0°F12.8°C 46.1°F7.8°C 72% Calm Calm -- 30.25 in1024.4 mb 0.00 in0.0 mm 0.00 in0.0 mm 0.01 in0.3 mm
07:05 PM 54.5°F12.5°C 46.0°F7.8°C 73% Calm Calm -- 30.25 in1024.4 mb 0.00 in0.0 mm 0.00 in0.0 mm 0.01 in0.3 mm
07:10 PM 54.0°F12.2°C 45.9°F7.7°C 74% Calm Calm -- 30.25 in1024.4 mb 0.00 in0.0 mm 0.00 in0.0 mm 0.01 in0.3 mm
07:15 PM 53.5°F11.9°C 45.4°F7.4°C 74% Calm Calm -- 30.25 in1024.4 mb 0.00 in0.0 mm 0.00 in0.0 mm 0.01 in0.3 mm
07:20 PM 53.0°F11.7°C 45.3°F7.4°C 75% Calm Calm -- 30.25 in1024.4 mb 0.00 in0.0 mm 0.00 in0.0 mm 0.01 in0.3 mm
07:25 PM 52.4°F11.3°C 45.1°F7.3°C 76% Calm Calm -- 30.25 in1024.4 mb 0.00 in0.0 mm 0.00 in0.0 mm 0.01 in0.3 mm
07:30 PM 52.1°F11.2°C 45.1°F7.3°C 77% Calm Calm -- 30.25 in1024.4 mb 0.00 in0.0 mm 0.00 in0.0 mm 0.01 in0.3 mm
07:35 PM 52.0°F11.1°C 45.4°F7.4°C 78% Calm Calm -- 30.25 in1024.4 mb 0.00 in0.0 mm 0.00 in0.0 mm 0.01 in0.3 mm
07:40 PM 51.8°F11.0°C 45.5°F7.5°C 79% Calm Calm -- 30.25 in1024.4 mb 0.00 in0.0 mm 0.00 in0.0 mm 0.01 in0.3 mm
07:45 PM 51.6°F10.9°C 45.6°F7.6°C 80% Calm Calm -- 30.26 in1024.7 mb 0.00 in0.0 mm 0.00 in0.0 mm 0.01 in0.3 mm
07:50 PM 51.2°F10.7°C 45.2°F7.3°C 80% 0.3 mph E0.5 kmh E 2.0 mph3.2 kmh 30.26 in1024.7 mb 0.00 in0.0 mm 0.00 in0.0 mm 0.01 in0.3 mm
07:55 PM 51.2°F10.7°C 45.6°F7.6°C 81% 0.2 mph E0.3 kmh E 2.0 mph3.2 kmh 30.26 in1024.7 mb 0.00 in0.0 mm 0.00 in0.0 mm 0.01 in0.3 mm
08:00 PM 51.1°F10.6°C 45.8°F7.7°C 82% 0.2 mph SW0.3 kmh SW 2.0 mph3.2 kmh 30.26 in1024.7 mb 0.00 in0.0 mm 0.00 in0.0 mm 0.01 in0.3 mm
08:05 PM 51.0°F10.6°C 45.7°F7.6°C 82% Calm Calm 2.0 mph3.2 kmh 30.26 in1024.7 mb 0.00 in0.0 mm 0.00 in0.0 mm 0.01 in0.3 mm
08:10 PM 50.7°F10.4°C 45.7°F7.6°C 83% Calm Calm -- 30.26 in1024.7 mb 0.00 in0.0 mm 0.00 in0.0 mm 0.01 in0.3 mm
08:15 PM 50.6°F10.3°C 45.6°F7.6°C 83% Calm Calm -- 30.26 in1024.7 mb 0.00 in0.0 mm 0.00 in0.0 mm 0.01 in0.3 mm
08:20 PM 50.6°F10.3°C 45.6°F7.6°C 83% Calm Calm -- 30.26 in1024.7 mb 0.00 in0.0 mm 0.00 in0.0 mm 0.01 in0.3 mm
08:25 PM 50.2°F10.1°C 45.2°F7.3°C 83% Calm Calm 1.0 mph1.6 kmh 30.26 in1024.7 mb 0.00 in0.0 mm 0.00 in0.0 mm 0.01 in0.3 mm
08:30 PM 49.9°F9.9°C 45.3°F7.4°C 84% Calm Calm 1.0 mph1.6 kmh 30.27 in1025.1 mb 0.00 in0.0 mm 0.00 in0.0 mm 0.01 in0.3 mm
08:35 PM 49.8°F9.9°C 45.2°F7.3°C 84% Calm Calm -- 30.27 in1025.1 mb 0.00 in0.0 mm 0.00 in0.0 mm 0.01 in0.3 mm
08:40 PM 49.7°F9.8°C 45.1°F7.3°C 84% Calm Calm -- 30.27 in1025.1 mb 0.00 in0.0 mm 0.00 in0.0 mm 0.01 in0.3 mm
08:45 PM 49.5°F9.7°C 44.9°F7.2°C 84% Calm Calm -- 30.27 in1025.1 mb 0.00 in0.0 mm 0.00 in0.0 mm 0.01 in0.3 mm
08:50 PM 49.3°F9.6°C 45.0°F7.2°C 85% Calm Calm -- 30.27 in1025.1 mb 0.00 in0.0 mm 0.00 in0.0 mm 0.01 in0.3 mm
08:55 PM 49.2°F9.6°C 44.9°F7.2°C 85% Calm Calm -- 30.27 in1025.1 mb 0.00 in0.0 mm 0.00 in0.0 mm 0.01 in0.3 mm
09:00 PM 49.0°F9.4°C 44.7°F7.1°C 85% Calm Calm -- 30.27 in1025.1 mb 0.00 in0.0 mm 0.00 in0.0 mm 0.01 in0.3 mm
09:05 PM 48.8°F9.3°C 44.5°F6.9°C 85% Calm Calm -- 30.27 in1025.1 mb 0.00 in0.0 mm 0.00 in0.0 mm 0.01 in0.3 mm
09:10 PM 48.6°F9.2°C 44.3°F6.8°C 85% Calm Calm -- 30.27 in1025.1 mb 0.00 in0.0 mm 0.00 in0.0 mm 0.01 in0.3 mm
09:15 PM 48.2°F9.0°C 43.9°F6.6°C 85% Calm Calm -- 30.26 in1024.7 mb 0.00 in0.0 mm 0.00 in0.0 mm 0.01 in0.3 mm
09:20 PM 48.1°F8.9°C 44.1°F6.7°C 86% Calm Calm -- 30.26 in1024.7 mb 0.00 in0.0 mm 0.00 in0.0 mm 0.01 in0.3 mm
09:25 PM 48.0°F8.9°C 44.0°F6.7°C 86% Calm Calm -- 30.26 in1024.7 mb 0.00 in0.0 mm 0.00 in0.0 mm 0.01 in0.3 mm
09:30 PM 47.6°F8.7°C 43.6°F6.4°C 86% Calm Calm -- 30.28 in1025.4 mb 0.00 in0.0 mm 0.00 in0.0 mm 0.01 in0.3 mm
09:35 PM 47.3°F8.5°C 43.3°F6.3°C 86% Calm Calm -- 30.28 in1025.4 mb 0.00 in0.0 mm 0.00 in0.0 mm 0.01 in0.3 mm
09:40 PM 47.1°F8.4°C 43.1°F6.2°C 86% Calm Calm -- 30.28 in1025.4 mb 0.00 in0.0 mm 0.00 in0.0 mm 0.01 in0.3 mm
09:45 PM 47.0°F8.3°C 43.3°F6.3°C 87% Calm Calm -- 30.28 in1025.4 mb 0.00 in0.0 mm 0.00 in0.0 mm 0.01 in0.3 mm
09:50 PM 47.0°F8.3°C 43.3°F6.3°C 87% Calm Calm -- 30.28 in1025.4 mb 0.00 in0.0 mm 0.00 in0.0 mm 0.01 in0.3 mm
09:55 PM 46.9°F8.3°C 43.2°F6.2°C 87% Calm Calm -- 30.28 in1025.4 mb 0.00 in0.0 mm 0.00 in0.0 mm 0.01 in0.3 mm
10:00 PM 46.7°F8.2°C 43.0°F6.1°C 87% Calm Calm -- 30.27 in1025.1 mb 0.00 in0.0 mm 0.00 in0.0 mm 0.01 in0.3 mm
10:05 PM 46.5°F8.1°C 42.8°F6.0°C 87% Calm Calm -- 30.27 in1025.1 mb 0.00 in0.0 mm 0.00 in0.0 mm 0.01 in0.3 mm
10:10 PM 46.3°F7.9°C 42.6°F5.9°C 87% Calm Calm -- 30.27 in1025.1 mb 0.00 in0.0 mm 0.00 in0.0 mm 0.01 in0.3 mm
10:15 PM 46.3°F7.9°C 42.6°F5.9°C 87% Calm Calm -- 30.27 in1025.1 mb 0.00 in0.0 mm 0.00 in0.0 mm 0.01 in0.3 mm
10:20 PM 46.1°F7.8°C 42.7°F5.9°C 88% Calm Calm -- 30.27 in1025.1 mb 0.00 in0.0 mm 0.00 in0.0 mm 0.01 in0.3 mm
10:25 PM 46.0°F7.8°C 42.6°F5.9°C 88% Calm Calm -- 30.27 in1025.1 mb 0.00 in0.0 mm 0.00 in0.0 mm 0.01 in0.3 mm
10:30 PM 46.0°F7.8°C 42.6°F5.9°C 88% Calm Calm -- 30.27 in1025.1 mb 0.00 in0.0 mm 0.00 in0.0 mm 0.01 in0.3 mm
10:35 PM 45.9°F7.7°C 42.5°F5.8°C 88% Calm Calm -- 30.27 in1025.1 mb 0.00 in0.0 mm 0.00 in0.0 mm 0.01 in0.3 mm
10:40 PM 45.7°F7.6°C 42.4°F5.8°C 88% Calm Calm -- 30.27 in1025.1 mb 0.00 in0.0 mm 0.00 in0.0 mm 0.01 in0.3 mm
10:45 PM 45.4°F7.4°C 42.1°F5.6°C 88% Calm Calm -- 30.26 in1024.7 mb 0.00 in0.0 mm 0.00 in0.0 mm 0.01 in0.3 mm
10:50 PM 45.2°F7.3°C 41.9°F5.5°C 88% Calm Calm -- 30.26 in1024.7 mb 0.00 in0.0 mm 0.00 in0.0 mm 0.01 in0.3 mm
10:55 PM 45.2°F7.3°C 41.9°F5.5°C 88% Calm Calm -- 30.26 in1024.7 mb 0.00 in0.0 mm 0.00 in0.0 mm 0.01 in0.3 mm
11:00 PM 45.4°F7.4°C 42.4°F5.8°C 89% Calm Calm 1.0 mph1.6 kmh 30.26 in1024.7 mb 0.00 in0.0 mm 0.00 in0.0 mm 0.01 in0.3 mm
11:05 PM 45.4°F7.4°C 42.1°F5.6°C 88% Calm Calm 1.0 mph1.6 kmh 30.26 in1024.7 mb 0.00 in0.0 mm 0.00 in0.0 mm 0.01 in0.3 mm
11:10 PM 45.2°F7.3°C 42.2°F5.7°C 89% Calm Calm -- 30.26 in1024.7 mb 0.00 in0.0 mm 0.00 in0.0 mm 0.01 in0.3 mm
11:15 PM 45.0°F7.2°C 42.0°F5.6°C 89% Calm Calm -- 30.26 in1024.7 mb 0.00 in0.0 mm 0.00 in0.0 mm 0.01 in0.3 mm
11:20 PM 44.9°F7.2°C 41.9°F5.5°C 89% Calm Calm -- 30.26 in1024.7 mb 0.00 in0.0 mm 0.00 in0.0 mm 0.01 in0.3 mm
11:25 PM 44.7°F7.1°C 41.7°F5.4°C 89% Calm Calm -- 30.26 in1024.7 mb 0.00 in0.0 mm 0.00 in0.0 mm 0.01 in0.3 mm
11:30 PM 44.3°F6.8°C 41.3°F5.2°C 89% Calm Calm -- 30.25 in1024.4 mb 0.00 in0.0 mm 0.00 in0.0 mm 0.01 in0.3 mm
11:35 PM 44.1°F6.7°C 41.1°F5.1°C 89% Calm Calm -- 30.25 in1024.4 mb 0.00 in0.0 mm 0.00 in0.0 mm 0.01 in0.3 mm
11:40 PM 44.0°F6.7°C 41.0°F5.0°C 89% Calm Calm -- 30.25 in1024.4 mb 0.00 in0.0 mm 0.00 in0.0 mm 0.01 in0.3 mm
11:45 PM 44.3°F6.8°C 41.3°F5.2°C 89% Calm Calm -- 30.25 in1024.4 mb 0.00 in0.0 mm 0.00 in0.0 mm 0.01 in0.3 mm
11:50 PM 44.4°F6.9°C 41.4°F5.2°C 89% Calm Calm -- 30.25 in1024.4 mb 0.00 in0.0 mm 0.00 in0.0 mm 0.01 in0.3 mm
11:55 PM 44.3°F6.8°C 41.3°F5.2°C 89% Calm Calm -- 30.25 in1024.4 mb 0.00 in0.0 mm 0.00 in0.0 mm 0.01 in0.3 mm